createdAt,value
2019-05-20T00:02:25.930Z,12.99
2019-05-20T00:07:15.317Z,12.54
2019-05-20T00:12:11.243Z,12.42
2019-05-20T00:17:07.306Z,12.27
2019-05-20T00:22:03.335Z,12.19
2019-05-20T00:26:59.259Z,12.50
2019-05-20T00:31:55.195Z,12.03
2019-05-20T00:36:51.116Z,11.96
2019-05-20T00:41:47.848Z,12.02
2019-05-20T00:46:43.787Z,12.33
2019-05-20T00:51:40.731Z,12.09
2019-05-20T00:56:36.754Z,11.76
2019-05-20T01:01:32.898Z,11.58
2019-05-20T01:06:28.828Z,11.54
2019-05-20T01:11:24.763Z,11.52
2019-05-20T01:16:20.725Z,11.63
2019-05-20T01:21:16.748Z,11.51
2019-05-20T01:26:12.830Z,11.80
2019-05-20T01:31:09.047Z,12.04
2019-05-20T01:36:04.977Z,11.99
2019-05-20T01:41:01.415Z,11.89
2019-05-20T01:45:57.358Z,11.46
2019-05-20T01:50:53.290Z,11.33
2019-05-20T01:55:49.219Z,11.59
2019-05-20T02:00:45.149Z,11.12
2019-05-20T02:05:41.073Z,10.99
2019-05-20T02:10:37.011Z,10.90
2019-05-20T02:15:40.913Z,11.20
2019-05-20T02:20:36.880Z,10.86
2019-05-20T02:25:32.774Z,11.13
2019-05-20T02:30:28.799Z,11.28
2019-05-20T02:35:24.729Z,10.95
2019-05-20T02:40:20.764Z,10.76
2019-05-20T02:45:16.921Z,11.41
2019-05-20T02:50:12.954Z,11.51
2019-05-20T02:55:08.997Z,11.15
2019-05-20T03:00:08.514Z,11.13
2019-05-20T03:05:07.674Z,11.34
2019-05-20T03:10:05.519Z,10.62
2019-05-20T03:15:02.357Z,11.03
2019-05-20T03:19:58.284Z,10.62
2019-05-20T03:24:54.218Z,10.69
2019-05-20T03:29:50.251Z,10.91
2019-05-20T03:34:54.012Z,10.59
2019-05-20T03:39:44.029Z,10.53
2019-05-20T03:44:39.986Z,10.81
2019-05-20T03:49:35.911Z,10.70
2019-05-20T03:54:31.848Z,11.01
2019-05-20T03:59:27.791Z,11.34
2019-05-20T04:04:25.157Z,11.54
2019-05-20T04:09:22.113Z,11.75
2019-05-20T04:14:18.115Z,11.88
2019-05-20T04:19:14.036Z,12.16
2019-05-20T04:24:10.185Z,11.97
2019-05-20T04:29:06.133Z,12.42
2019-05-20T04:34:02.165Z,12.37
2019-05-20T04:39:03.243Z,12.16
2019-05-20T04:43:59.214Z,12.24
2019-05-20T04:48:55.159Z,12.31
2019-05-20T04:53:51.080Z,12.46
2019-05-20T04:58:47.007Z,12.93
2019-05-20T05:03:42.936Z,12.97
2019-05-20T05:08:46.407Z,13.09
2019-05-20T05:13:42.430Z,13.42
2019-05-20T05:18:38.362Z,13.63
2019-05-20T05:23:34.398Z,14.09
2019-05-20T05:28:30.332Z,14.25
2019-05-20T05:33:26.267Z,14.47
2019-05-20T05:38:24.678Z,14.61
2019-05-20T05:43:26.730Z,14.72
2019-05-20T05:48:23.364Z,14.95
2019-05-20T05:53:19.293Z,15.10
2019-05-20T05:58:15.245Z,14.99
2019-05-20T06:03:11.229Z,15.19
2019-05-20T06:08:07.162Z,14.94
2019-05-20T06:13:03.337Z,15.22
2019-05-20T06:17:59.315Z,15.26
2019-05-20T06:22:55.619Z,15.33
2019-05-20T06:27:51.545Z,15.02
2019-05-20T06:32:47.475Z,14.68
2019-05-20T06:37:48.499Z,15.18
2019-05-20T06:42:44.527Z,14.38
2019-05-20T06:47:41.264Z,14.65
2019-05-20T06:52:37.208Z,14.86
2019-05-20T06:57:33.125Z,14.81
2019-05-20T07:02:29.063Z,14.80
2019-05-20T07:07:24.988Z,15.29
2019-05-20T07:12:20.932Z,15.50
2019-05-20T07:17:16.857Z,15.07
2019-05-20T07:22:12.778Z,14.68
2019-05-20T07:27:08.705Z,14.65
2019-05-20T07:32:04.641Z,15.04
2019-05-20T07:37:03.836Z,14.71
2019-05-20T07:41:58.490Z,14.46
2019-05-20T07:46:54.600Z,14.24
2019-05-20T07:51:50.810Z,14.52
2019-05-20T07:56:48.542Z,14.49
2019-05-20T08:01:44.466Z,14.07
2019-05-20T08:06:40.393Z,14.28
2019-05-20T08:11:36.327Z,14.37
2019-05-20T08:16:32.655Z,14.56
2019-05-20T08:21:28.580Z,14.78
2019-05-20T08:26:24.622Z,14.46
2019-05-20T08:31:20.547Z,14.38
2019-05-20T08:36:16.484Z,14.51
2019-05-20T08:41:12.421Z,14.43
2019-05-20T08:46:08.391Z,14.39
2019-05-20T08:51:04.314Z,14.76
2019-05-20T08:56:00.283Z,14.69
2019-05-20T09:00:56.379Z,14.88
2019-05-20T09:05:52.305Z,14.63
2019-05-20T09:10:48.240Z,14.70
2019-05-20T09:15:45.427Z,14.68
2019-05-20T09:20:41.941Z,14.99
2019-05-20T09:25:37.928Z,15.11
2019-05-20T09:30:33.866Z,15.57
2019-05-20T09:35:29.996Z,15.38
2019-05-20T09:40:57.014Z,15.56
2019-05-20T09:46:06.210Z,15.36
2019-05-20T09:50:51.802Z,15.30
2019-05-20T09:55:47.727Z,15.02
2019-05-20T10:00:44.958Z,15.32
2019-05-20T10:05:40.919Z,15.50
2019-05-20T10:10:36.830Z,15.43
2019-05-20T10:15:32.952Z,15.57
2019-05-20T10:20:28.875Z,15.96
2019-05-20T10:25:24.920Z,16.14
2019-05-20T10:30:20.952Z,16.27
2019-05-20T10:35:16.892Z,16.40
2019-05-20T10:40:19.499Z,16.22
2019-05-20T10:45:18.754Z,16.73
2019-05-20T10:50:15.009Z,17.00
2019-05-20T10:55:11.626Z,17.25
2019-05-20T11:00:08.060Z,17.31
2019-05-20T11:05:05.200Z,17.30
2019-05-20T11:10:01.345Z,17.07
2019-05-20T11:14:57.265Z,17.17
2019-05-20T11:19:53.200Z,17.65
2019-05-20T11:24:49.196Z,18.18
2019-05-20T11:29:45.126Z,17.93
2019-05-20T11:34:41.095Z,17.73
2019-05-20T11:39:37.093Z,18.31
2019-05-20T11:44:33.044Z,18.08
2019-05-20T11:49:29.510Z,18.50
2019-05-20T11:54:25.556Z,18.50
2019-05-20T11:59:21.490Z,18.52
2019-05-20T12:04:17.418Z,18.77
2019-05-20T12:09:14.629Z,18.61
2019-05-20T12:14:10.626Z,18.45
2019-05-20T12:19:06.555Z,18.66
2019-05-20T12:24:02.595Z,18.95
2019-05-20T12:28:58.523Z,18.90
2019-05-20T12:33:54.455Z,18.66
2019-05-20T12:38:53.337Z,18.85
2019-05-20T12:44:09.962Z,18.74
2019-05-20T12:48:47.654Z,18.92
2019-05-20T12:53:43.614Z,19.13
2019-05-20T12:58:40.149Z,19.21
2019-05-20T13:03:36.087Z,19.26
2019-05-20T13:08:47.018Z,19.11
2019-05-20T13:13:43.148Z,19.22
2019-05-20T13:18:53.473Z,18.97
2019-05-20T13:23:37.043Z,19.02
2019-05-20T13:28:33.021Z,19.21
2019-05-20T13:33:29.308Z,19.39
2019-05-20T13:38:26.189Z,19.33
2019-05-20T13:43:22.217Z,19.12
2019-05-20T13:48:18.199Z,19.11
2019-05-20T13:53:14.160Z,19.17
2019-05-20T13:58:10.790Z,19.40
2019-05-20T14:03:06.985Z,19.75
2019-05-20T14:08:03.130Z,19.35
2019-05-20T14:12:59.129Z,20.17
2019-05-20T14:17:55.049Z,20.11
2019-05-20T14:22:51.049Z,20.13
2019-05-20T14:27:47.056Z,19.74
2019-05-20T14:32:43.127Z,19.69
2019-05-20T14:37:39.043Z,20.15
2019-05-20T14:42:35.588Z,19.88
2019-05-20T14:47:31.531Z,19.93
2019-05-20T14:52:32.760Z,19.53
2019-05-20T14:57:33.966Z,19.75
2019-05-20T15:02:37.595Z,19.56
2019-05-20T15:07:40.553Z,19.48
2019-05-20T15:17:56.849Z,19.46
2019-05-20T15:22:53.498Z,19.61
2019-05-20T15:27:50.518Z,19.46
2019-05-20T15:32:46.547Z,19.68
2019-05-20T15:37:44.567Z,19.39
2019-05-20T15:42:41.482Z,19.57
2019-05-20T15:47:37.546Z,19.68
2019-05-20T15:52:34.134Z,19.77
2019-05-20T15:57:30.063Z,19.77
2019-05-20T16:02:26.001Z,19.85
2019-05-20T16:07:22.034Z,20.12
2019-05-20T16:12:17.969Z,19.91
2019-05-20T16:17:14.070Z,19.72
2019-05-20T16:22:10.005Z,19.94
2019-05-20T16:27:06.186Z,19.52
2019-05-20T16:32:02.378Z,19.39
2019-05-20T16:36:58.333Z,19.17
2019-05-20T16:41:55.000Z,18.94
2019-05-20T16:46:51.051Z,18.98
2019-05-20T16:51:48.939Z,18.87
2019-05-20T16:56:47.775Z,18.91
2019-05-20T17:01:46.539Z,18.92
2019-05-20T17:06:42.503Z,18.87
2019-05-20T17:11:38.516Z,18.96
2019-05-20T17:16:34.438Z,18.87
2019-05-20T17:21:30.957Z,18.77
2019-05-20T17:26:26.927Z,18.66
2019-05-20T17:31:22.964Z,18.52
2019-05-20T17:36:18.899Z,18.51
2019-05-20T17:41:14.828Z,18.50
2019-05-20T17:46:10.951Z,18.51
2019-05-20T17:51:06.883Z,18.11
2019-05-20T17:56:03.056Z,17.56
2019-05-20T18:01:13.801Z,17.36
2019-05-20T18:05:57.604Z,17.16
2019-05-20T18:10:53.636Z,17.04
2019-05-20T18:15:49.558Z,16.71
2019-05-20T18:20:45.498Z,16.23
2019-05-20T18:25:42.549Z,16.33
2019-05-20T18:30:38.479Z,16.71
2019-05-20T18:35:34.416Z,17.24
2019-05-20T18:40:30.450Z,17.55
2019-05-20T18:45:26.420Z,17.70
2019-05-20T18:50:23.494Z,17.68
2019-05-20T18:55:19.416Z,17.79
2019-05-20T19:00:17.384Z,17.79
2019-05-20T19:05:13.612Z,17.70
2019-05-20T19:10:09.860Z,17.73
2019-05-20T19:15:06.123Z,17.64
2019-05-20T19:20:03.443Z,17.60
2019-05-20T19:24:59.414Z,17.53
2019-05-20T19:29:55.505Z,17.53
2019-05-20T19:34:51.435Z,17.51
2019-05-20T19:39:47.367Z,17.46
2019-05-20T19:44:43.327Z,17.41
2019-05-20T19:49:42.322Z,17.41
2019-05-20T19:54:37.193Z,17.39
2019-05-20T19:59:33.119Z,17.39
2019-05-20T20:04:29.050Z,17.37
2019-05-20T20:09:25.592Z,17.44
2019-05-20T20:14:21.488Z,17.40
2019-05-20T20:19:17.416Z,17.37
2019-05-20T20:24:13.344Z,17.34
2019-05-20T20:29:11.135Z,17.36
2019-05-20T20:34:07.104Z,17.36
2019-05-20T20:39:06.988Z,17.31
2019-05-20T20:44:03.116Z,17.30
2019-05-20T20:48:59.141Z,17.27
2019-05-20T20:53:55.066Z,17.24
2019-05-20T20:58:51.051Z,17.20
2019-05-20T21:03:46.957Z,17.13
2019-05-20T21:08:48.798Z,17.12
2019-05-20T21:13:44.824Z,17.06
2019-05-20T21:18:41.180Z,17.08
2019-05-20T21:23:38.060Z,16.99
2019-05-20T21:28:35.951Z,16.96
2019-05-20T21:33:31.915Z,16.87
2019-05-20T21:38:28.967Z,16.81
2019-05-20T21:43:25.035Z,16.74
2019-05-20T21:48:20.984Z,16.68
2019-05-20T21:53:16.895Z,16.58
2019-05-20T21:58:12.823Z,16.52
2019-05-20T22:03:23.253Z,16.39
2019-05-20T22:08:06.690Z,16.35
2019-05-20T22:13:02.715Z,16.24
2019-05-20T22:17:58.642Z,16.18
2019-05-20T22:28:14.714Z,16.04
2019-05-20T22:33:10.633Z,15.98
2019-05-20T22:38:06.591Z,15.93
2019-05-20T22:43:02.609Z,15.89
2019-05-20T22:47:58.560Z,15.84
2019-05-20T22:52:54.487Z,15.72
2019-05-20T22:57:50.410Z,15.62
2019-05-20T23:02:46.333Z,15.55
2019-05-20T23:07:42.256Z,15.56
2019-05-20T23:12:38.275Z,15.45
2019-05-20T23:17:34.201Z,15.31
2019-05-20T23:22:30.122Z,15.25
2019-05-20T23:27:26.043Z,15.22
2019-05-20T23:32:21.962Z,15.24
2019-05-20T23:37:17.884Z,15.19
2019-05-20T23:42:14.658Z,15.11
2019-05-20T23:47:10.657Z,14.92
2019-05-20T23:52:06.640Z,14.89
2019-05-20T23:57:02.647Z,14.85
